Roeland Park, Kansas
Current Conditions -  °F | °C
As of 3:54 PM on Friday 24 Oct 2014 (Local Time) from KMKC Reporting Station
Clear Clear  
Wind Chill: 77°   Ceiling: Unl
Heat Index: 79°   Visibility: 10mi
Dew Point: 62°   Wind: 13mph
Humidity: 60%   Direction: 220°SW
Pressure: 29.94"   Gusts: NA
Location:  39.0312°N, 94.6315°W
Report Text: KMKC 242054Z 22011KT 10SM CLR 25/17 A2994 RMK AO2 SLP134 T02500167 56024
Loading
Personal Weather Stations






























Interactive Weather Map
Tropical Storm Tracking
New forecast layout! Learn more

10-Day Weather Forecast

Advertisements
Track Severe Weather on mobile